createdAt,value
2022-07-30T00:01:36.103Z,1.00
2022-07-30T00:04:05.549Z,1.00
2022-07-30T00:06:34.441Z,1.00
2022-07-30T00:09:03.092Z,1.00
2022-07-30T00:11:32.002Z,1.00
2022-07-30T00:14:00.943Z,1.00
2022-07-30T00:16:31.104Z,1.00
2022-07-30T00:19:00.046Z,1.00
2022-07-30T00:21:35.942Z,1.00
2022-07-30T00:24:08.736Z,1.00
2022-07-30T00:26:37.619Z,1.00
2022-07-30T00:29:07.139Z,1.00
2022-07-30T00:31:37.298Z,1.20
2022-07-30T00:34:06.027Z,1.30
2022-07-30T00:36:34.870Z,1.60
2022-07-30T00:39:06.274Z,1.70
2022-07-30T00:41:37.974Z,1.90
2022-07-30T00:44:06.966Z,2.10
2022-07-30T00:46:37.097Z,2.30
2022-07-30T00:49:05.865Z,2.40
2022-07-30T00:51:34.709Z,2.60
2022-07-30T00:54:03.485Z,2.70
2022-07-30T00:56:32.247Z,2.90
2022-07-30T00:59:01.033Z,3.10
2022-07-30T01:01:29.843Z,3.20
2022-07-30T01:04:00.261Z,3.40
2022-07-30T01:06:29.329Z,3.50
2022-07-30T01:08:58.802Z,3.60
2022-07-30T01:11:38.364Z,3.80
2022-07-30T01:14:09.507Z,3.90
2022-07-30T01:16:40.112Z,4.10
2022-07-30T01:19:38.743Z,4.20
2022-07-30T01:22:17.477Z,4.30
2022-07-30T01:24:58.081Z,4.50
2022-07-30T01:27:32.519Z,4.60
2022-07-30T01:30:05.752Z,4.80
2022-07-30T01:32:38.332Z,5.00
2022-07-30T01:35:11.427Z,5.30
2022-07-30T01:37:43.761Z,5.40
2022-07-30T01:40:15.886Z,5.60
2022-07-30T01:42:52.091Z,5.70
2022-07-30T01:45:21.187Z,5.90
2022-07-30T01:47:53.546Z,5.80
2022-07-30T01:50:24.790Z,6.00
2022-07-30T01:52:56.370Z,6.10
2022-07-30T01:55:33.704Z,6.10
2022-07-30T01:58:07.630Z,6.10
2022-07-30T02:00:43.854Z,6.20
2022-07-30T02:03:13.779Z,6.40
2022-07-30T02:05:51.094Z,6.50
2022-07-30T02:08:29.047Z,6.60
2022-07-30T02:11:06.053Z,6.70
2022-07-30T02:13:42.696Z,6.80
2022-07-30T02:16:19.725Z,6.90
2022-07-30T02:19:01.300Z,7.00
2022-07-30T02:21:39.536Z,7.10
2022-07-30T02:24:27.224Z,7.20
2022-07-30T02:27:03.429Z,7.30
2022-07-30T02:29:38.211Z,7.40
2022-07-30T02:32:13.730Z,7.50
2022-07-30T02:34:47.552Z,7.70
2022-07-30T02:37:42.993Z,7.70
2022-07-30T02:40:17.198Z,7.90
2022-07-30T02:42:50.545Z,8.10
2022-07-30T02:45:26.623Z,8.20
2022-07-30T02:48:01.241Z,8.50
2022-07-30T02:50:32.268Z,8.50
2022-07-30T02:53:06.562Z,8.70
2022-07-30T02:55:38.207Z,8.90
2022-07-30T02:58:10.502Z,9.00
2022-07-30T03:00:42.261Z,9.10
2022-07-30T03:03:14.496Z,9.30
2022-07-30T03:05:45.190Z,9.40
2022-07-30T03:08:19.299Z,9.60
2022-07-30T03:10:51.413Z,9.80
2022-07-30T03:13:23.079Z,10.00
2022-07-30T03:15:59.267Z,10.00
2022-07-30T03:18:34.779Z,10.10
2022-07-30T03:21:11.073Z,10.20
2022-07-30T03:23:45.448Z,10.40
2022-07-30T03:26:17.565Z,10.50
2022-07-30T03:28:48.679Z,10.60
2022-07-30T03:31:19.825Z,10.80
2022-07-30T03:33:51.985Z,10.90
2022-07-30T03:36:22.620Z,10.90
2022-07-30T03:38:53.149Z,11.50
2022-07-30T03:41:24.788Z,11.20
2022-07-30T03:44:01.451Z,11.40
2022-07-30T03:46:36.429Z,11.50
2022-07-30T03:49:10.250Z,11.60
2022-07-30T03:51:46.558Z,11.70
2022-07-30T03:54:22.853Z,11.70
2022-07-30T03:57:21.448Z,12.00
2022-07-30T03:59:52.427Z,12.20
2022-07-30T04:02:32.986Z,12.00
2022-07-30T04:05:19.897Z,12.20
2022-07-30T04:07:51.058Z,12.10
2022-07-30T04:10:22.820Z,12.30
2022-07-30T04:13:01.052Z,12.50
2022-07-30T04:16:38.078Z,12.40
2022-07-30T04:18:37.361Z,12.30
2022-07-30T04:21:17.160Z,12.10
2022-07-30T04:24:04.660Z,12.70
2022-07-30T04:26:39.254Z,12.20
2022-07-30T04:29:16.596Z,12.30
2022-07-30T04:31:48.078Z,12.30
2022-07-30T04:34:38.689Z,12.50
2022-07-30T04:37:09.474Z,12.60
2022-07-30T04:39:38.433Z,12.80
2022-07-30T04:42:07.429Z,13.10
2022-07-30T04:44:38.444Z,12.40
2022-07-30T04:47:27.155Z,12.30
2022-07-30T04:50:31.231Z,12.40
2022-07-30T04:53:01.111Z,12.40
2022-07-30T04:55:37.262Z,12.50
2022-07-30T04:58:08.618Z,12.40
2022-07-30T05:00:41.436Z,12.70
2022-07-30T05:03:17.786Z,12.70
2022-07-30T05:06:00.013Z,12.70
2022-07-30T05:08:32.817Z,12.70
2022-07-30T05:11:04.978Z,12.70
2022-07-30T05:13:38.288Z,13.50
2022-07-30T05:16:11.536Z,13.10
2022-07-30T05:18:40.550Z,13.10
2022-07-30T05:21:11.081Z,13.10
2022-07-30T05:23:50.405Z,13.50
2022-07-30T05:26:40.839Z,13.30
2022-07-30T05:29:19.528Z,13.40
2022-07-30T05:32:11.314Z,13.50
2022-07-30T05:34:40.615Z,13.80
2022-07-30T05:37:12.429Z,13.40
2022-07-30T05:40:02.637Z,13.20
2022-07-30T05:42:59.869Z,13.50
2022-07-30T05:45:30.078Z,14.00
2022-07-30T05:47:59.130Z,13.90
2022-07-30T05:50:28.045Z,13.60
2022-07-30T05:52:58.654Z,13.60
2022-07-30T05:56:06.804Z,13.40
2022-07-30T05:59:01.079Z,13.00
2022-07-30T06:01:49.940Z,12.80
2022-07-30T06:04:24.749Z,13.10
2022-07-30T06:07:00.164Z,12.60
2022-07-30T06:09:36.394Z,12.10
2022-07-30T06:12:07.563Z,12.00
2022-07-30T06:14:36.801Z,11.90
2022-07-30T06:17:07.823Z,12.10
2022-07-30T06:20:17.338Z,12.00
2022-07-30T06:23:04.857Z,12.80
2022-07-30T06:25:50.616Z,12.30
2022-07-30T06:28:36.968Z,12.60
2022-07-30T06:31:12.823Z,13.00
2022-07-30T06:33:41.708Z,13.00
2022-07-30T06:36:13.761Z,13.10
2022-07-30T06:38:53.373Z,13.30
2022-07-30T06:41:34.245Z,13.40
2022-07-30T06:44:03.023Z,13.00
2022-07-30T06:47:07.920Z,12.90
2022-07-30T06:49:39.797Z,12.20
2022-07-30T06:52:13.554Z,11.90
2022-07-30T06:54:49.442Z,11.80
2022-07-30T06:57:35.490Z,12.00
2022-07-30T07:00:14.092Z,10.70
2022-07-30T07:02:46.018Z,11.10
2022-07-30T07:05:16.142Z,11.10
2022-07-30T07:07:58.330Z,10.60
2022-07-30T07:10:31.125Z,10.70
2022-07-30T07:13:19.173Z,10.00
2022-07-30T07:15:48.107Z,10.30
2022-07-30T07:18:21.240Z,10.40
2022-07-30T07:20:55.972Z,10.30
2022-07-30T07:23:25.577Z,9.60
2022-07-30T07:26:14.181Z,9.80
2022-07-30T07:28:44.860Z,10.00
2022-07-30T07:32:05.399Z,9.40
2022-07-30T07:34:02.896Z,9.70
2022-07-30T07:36:31.929Z,9.50
2022-07-30T07:39:00.820Z,9.90
2022-07-30T07:41:29.645Z,10.00
2022-07-30T07:44:19.146Z,9.90
2022-07-30T07:46:48.425Z,10.00
2022-07-30T07:49:17.469Z,10.00
2022-07-30T07:51:52.186Z,9.50
2022-07-30T07:54:23.470Z,9.30
2022-07-30T07:56:56.769Z,9.20
2022-07-30T07:59:40.166Z,9.60
2022-07-30T08:02:21.489Z,9.40
2022-07-30T08:04:59.708Z,9.10
2022-07-30T08:07:47.297Z,8.70
2022-07-30T08:10:35.089Z,9.00
2022-07-30T08:13:49.076Z,8.80
2022-07-30T08:16:41.284Z,9.00
2022-07-30T08:19:26.987Z,8.60
2022-07-30T08:22:10.186Z,7.80
2022-07-30T08:24:39.485Z,7.40
2022-07-30T08:27:08.863Z,7.00
2022-07-30T08:29:38.083Z,6.90
2022-07-30T08:32:08.976Z,7.20
2022-07-30T08:34:40.743Z,6.80
2022-07-30T08:37:09.629Z,7.00
2022-07-30T08:39:39.001Z,6.40
2022-07-30T08:42:08.474Z,6.20
2022-07-30T08:44:39.060Z,6.10
2022-07-30T08:47:13.016Z,6.00
2022-07-30T08:50:04.741Z,6.30
2022-07-30T08:52:39.517Z,5.50
2022-07-30T08:55:10.950Z,6.00
2022-07-30T08:57:43.418Z,5.80
2022-07-30T09:00:15.598Z,5.10
2022-07-30T09:02:46.157Z,4.80
2022-07-30T09:05:15.268Z,4.80
2022-07-30T09:07:44.348Z,4.90
2022-07-30T09:10:20.254Z,4.70
2022-07-30T09:12:49.151Z,4.90
2022-07-30T09:15:20.916Z,4.80
2022-07-30T09:17:57.699Z,4.40
2022-07-30T09:20:32.705Z,5.00
2022-07-30T09:23:03.970Z,4.70
2022-07-30T09:25:52.533Z,4.40
2022-07-30T09:28:40.017Z,4.10
2022-07-30T09:31:56.723Z,4.50
2022-07-30T09:34:45.472Z,4.70
2022-07-30T09:37:37.547Z,4.60
2022-07-30T09:40:36.062Z,4.30
2022-07-30T09:43:27.650Z,4.10
2022-07-30T09:46:06.779Z,4.30
2022-07-30T09:48:35.713Z,4.50
2022-07-30T09:51:06.468Z,3.90
2022-07-30T09:54:00.190Z,4.10
2022-07-30T09:56:31.943Z,3.90
2022-07-30T09:59:02.169Z,4.30
2022-07-30T10:02:00.792Z,4.30
2022-07-30T10:04:48.953Z,4.40
2022-07-30T10:07:25.547Z,4.00
2022-07-30T10:10:02.310Z,3.50
2022-07-30T10:12:38.941Z,3.20
2022-07-30T10:15:13.641Z,2.80
2022-07-30T10:17:44.083Z,2.00
2022-07-30T10:20:32.191Z,2.70
2022-07-30T10:23:27.099Z,2.50
2022-07-30T10:26:17.144Z,2.00
2022-07-30T10:29:05.717Z,1.40
2022-07-30T10:31:48.466Z,1.30
2022-07-30T10:34:23.718Z,1.10
2022-07-30T10:37:06.566Z,1.00
2022-07-30T10:39:44.756Z,1.30
2022-07-30T10:42:42.459Z,1.10
2022-07-30T10:45:23.329Z,1.00
2022-07-30T10:47:54.806Z,1.00
2022-07-30T10:50:27.021Z,1.00
2022-07-30T10:52:58.876Z,1.00
2022-07-30T10:55:38.514Z,1.00
2022-07-30T10:58:11.145Z,1.00
2022-07-30T11:01:00.721Z,1.00
2022-07-30T11:03:41.653Z,1.00
2022-07-30T11:06:29.428Z,1.00
2022-07-30T11:08:58.511Z,1.00
2022-07-30T11:12:01.678Z,1.00
2022-07-30T11:15:07.538Z,1.00
2022-07-30T11:18:12.868Z,1.00
2022-07-30T11:20:48.605Z,1.00
2022-07-30T11:23:40.915Z,1.00
2022-07-30T11:26:14.246Z,1.00
2022-07-30T11:28:49.417Z,1.00
2022-07-30T11:31:55.721Z,1.00
2022-07-30T11:34:31.016Z,1.00
2022-07-30T11:37:22.077Z,1.00
2022-07-30T11:40:14.597Z,1.00
2022-07-30T11:42:45.045Z,1.00
2022-07-30T11:45:29.778Z,1.00
2022-07-30T11:48:01.413Z,1.00
2022-07-30T11:50:34.080Z,1.00
2022-07-30T11:53:05.748Z,1.00
2022-07-30T11:55:38.952Z,1.00
2022-07-30T11:58:12.597Z,1.00
2022-07-30T12:00:47.954Z,1.00
2022-07-30T12:03:20.878Z,1.00
2022-07-30T12:05:51.134Z,1.00
2022-07-30T12:08:35.442Z,1.00
2022-07-30T12:11:05.708Z,1.00
2022-07-30T12:13:43.872Z,1.00
2022-07-30T12:16:18.508Z,1.00
2022-07-30T12:18:48.593Z,1.00
2022-07-30T12:21:17.758Z,1.00
2022-07-30T12:23:57.475Z,1.00
2022-07-30T12:26:30.177Z,1.00
2022-07-30T12:29:02.158Z,1.00
2022-07-30T12:31:34.057Z,1.00
2022-07-30T12:34:19.707Z,1.00
2022-07-30T12:36:49.067Z,1.00
2022-07-30T12:39:23.167Z,1.00
2022-07-30T12:41:56.131Z,1.00
2022-07-30T12:44:42.139Z,1.00
2022-07-30T12:47:24.341Z,1.00
2022-07-30T12:49:54.467Z,1.00
2022-07-30T12:52:27.898Z,1.00
2022-07-30T12:55:04.140Z,1.00
2022-07-30T12:57:55.318Z,1.00
2022-07-30T13:00:25.867Z,1.00
2022-07-30T13:02:56.542Z,1.00
2022-07-30T13:05:50.779Z,1.00
2022-07-30T13:08:20.359Z,1.00
2022-07-30T13:11:00.902Z,1.00
2022-07-30T13:13:30.054Z,1.00
2022-07-30T13:16:04.482Z,1.00
2022-07-30T13:18:37.055Z,1.00
2022-07-30T13:21:09.307Z,1.00
2022-07-30T13:23:39.270Z,1.00
2022-07-30T13:26:09.797Z,1.00
2022-07-30T13:28:39.325Z,1.00
2022-07-30T13:31:09.426Z,1.00
2022-07-30T13:33:40.452Z,1.00
2022-07-30T13:36:09.976Z,1.00
2022-07-30T13:38:38.874Z,1.00
2022-07-30T13:41:07.993Z,1.00
2022-07-30T13:43:37.179Z,1.00
2022-07-30T13:46:07.293Z,1.00
2022-07-30T13:48:36.896Z,1.00
2022-07-30T13:51:07.968Z,1.00
2022-07-30T13:53:36.984Z,1.00
2022-07-30T13:56:06.623Z,1.00
2022-07-30T13:58:41.665Z,1.00
2022-07-30T14:01:11.690Z,1.00
2022-07-30T14:03:50.623Z,1.00
2022-07-30T14:06:21.735Z,1.00
2022-07-30T14:08:50.525Z,1.00
2022-07-30T14:11:19.417Z,1.00
2022-07-30T14:13:48.369Z,1.00
2022-07-30T14:16:43.812Z,1.00
2022-07-30T14:19:08.668Z,1.00
2022-07-30T14:21:54.771Z,1.00
2022-07-30T14:24:24.075Z,1.00
2022-07-30T14:26:58.022Z,1.00
2022-07-30T14:29:27.960Z,1.00
2022-07-30T14:31:57.448Z,1.00
2022-07-30T14:34:26.219Z,1.00
2022-07-30T14:36:56.380Z,1.00
2022-07-30T14:39:26.053Z,1.00
2022-07-30T14:41:56.261Z,1.00
2022-07-30T14:44:25.513Z,1.00
2022-07-30T14:46:54.517Z,1.00
2022-07-30T14:49:24.184Z,1.00
2022-07-30T14:51:53.355Z,1.00
2022-07-30T14:54:23.844Z,1.00
2022-07-30T14:56:57.988Z,1.00
2022-07-30T14:59:27.914Z,1.00
2022-07-30T15:01:57.316Z,1.00
2022-07-30T15:04:26.257Z,1.00
2022-07-30T15:06:55.047Z,1.00
2022-07-30T15:09:25.141Z,1.00
2022-07-30T15:12:08.391Z,1.00
2022-07-30T15:14:39.922Z,1.00
2022-07-30T15:17:09.234Z,1.00
2022-07-30T15:19:49.403Z,1.00
2022-07-30T15:22:20.516Z,1.00
2022-07-30T15:24:50.986Z,1.00
2022-07-30T15:27:22.440Z,1.00
2022-07-30T15:29:56.638Z,1.00
2022-07-30T15:32:25.775Z,1.00
2022-07-30T15:34:55.091Z,1.00
2022-07-30T15:37:24.746Z,1.00
2022-07-30T15:39:55.160Z,1.00
2022-07-30T15:42:27.330Z,1.00
2022-07-30T15:45:16.157Z,1.00
2022-07-30T15:47:46.183Z,1.00
2022-07-30T15:50:15.569Z,1.00
2022-07-30T15:52:44.713Z,1.00
2022-07-30T15:55:15.211Z,1.00
2022-07-30T15:57:44.743Z,1.00
2022-07-30T16:00:15.138Z,1.00
2022-07-30T16:02:44.380Z,1.00
2022-07-30T16:05:14.082Z,1.00
2022-07-30T16:07:43.506Z,1.00
2022-07-30T16:10:13.979Z,1.00
2022-07-30T16:12:43.173Z,1.00
2022-07-30T16:15:12.615Z,1.00
2022-07-30T16:17:45.162Z,1.00
2022-07-30T16:20:14.309Z,1.00
2022-07-30T16:22:43.018Z,1.00
2022-07-30T16:25:13.361Z,1.00
2022-07-30T16:27:42.496Z,1.00
2022-07-30T16:30:12.834Z,1.00
2022-07-30T16:32:41.633Z,1.00
2022-07-30T16:35:13.277Z,1.00
2022-07-30T16:37:42.434Z,1.00
2022-07-30T16:40:13.983Z,1.00
2022-07-30T16:42:42.683Z,1.00
2022-07-30T16:45:12.390Z,1.00
2022-07-30T16:47:41.146Z,1.00
2022-07-30T16:50:11.267Z,1.00
2022-07-30T16:52:40.150Z,1.00
2022-07-30T16:55:10.392Z,1.00
2022-07-30T16:57:40.738Z,1.00
2022-07-30T17:00:12.308Z,1.00
2022-07-30T17:02:41.925Z,1.00
2022-07-30T17:05:13.809Z,1.00
2022-07-30T17:07:43.005Z,1.00
2022-07-30T17:10:12.926Z,1.00
2022-07-30T17:12:50.801Z,1.00
2022-07-30T17:15:20.114Z,1.00
2022-07-30T17:18:00.655Z,1.00
2022-07-30T17:20:29.702Z,1.00
2022-07-30T17:22:58.867Z,1.00
2022-07-30T17:25:28.425Z,1.00
2022-07-30T17:27:59.864Z,1.00
2022-07-30T17:30:30.615Z,1.00
2022-07-30T17:32:59.987Z,1.00
2022-07-30T17:35:29.137Z,1.00
2022-07-30T17:37:58.133Z,1.00
2022-07-30T17:40:31.380Z,1.00
2022-07-30T17:43:04.921Z,1.00
2022-07-30T17:45:36.156Z,1.00
2022-07-30T17:48:06.133Z,1.00
2022-07-30T17:50:36.672Z,1.00
2022-07-30T17:53:06.962Z,1.00
2022-07-30T17:55:35.836Z,1.00
2022-07-30T17:58:07.855Z,1.00
2022-07-30T18:00:37.180Z,1.00
2022-07-30T18:03:06.205Z,1.00
2022-07-30T18:05:35.079Z,1.00
2022-07-30T18:08:07.811Z,1.00
2022-07-30T18:10:36.671Z,1.00
2022-07-30T18:13:25.627Z,1.00
2022-07-30T18:15:56.929Z,1.00
2022-07-30T18:18:26.088Z,1.00
2022-07-30T18:20:54.927Z,1.00
2022-07-30T18:23:23.717Z,1.00
2022-07-30T18:25:54.563Z,1.00
2022-07-30T18:28:25.444Z,1.00
2022-07-30T18:30:55.101Z,1.00
2022-07-30T18:33:23.869Z,1.00
2022-07-30T18:35:53.721Z,1.00
2022-07-30T18:38:22.617Z,1.00
2022-07-30T18:40:58.751Z,1.00
2022-07-30T18:43:31.014Z,1.00
2022-07-30T18:46:02.559Z,1.00
2022-07-30T18:48:31.446Z,1.00
2022-07-30T18:51:00.292Z,1.00
2022-07-30T18:53:29.268Z,1.00
2022-07-30T18:55:58.325Z,1.00
2022-07-30T18:58:28.491Z,1.00
2022-07-30T19:00:57.462Z,1.00
2022-07-30T19:03:26.500Z,1.00
2022-07-30T19:05:55.295Z,1.00
2022-07-30T19:08:24.168Z,1.00
2022-07-30T19:10:53.490Z,1.00
2022-07-30T19:13:23.609Z,1.00
2022-07-30T19:15:54.133Z,1.00
2022-07-30T19:18:22.866Z,1.00
2022-07-30T19:20:51.886Z,1.00
2022-07-30T19:23:22.082Z,1.00
2022-07-30T19:25:50.940Z,1.00
2022-07-30T19:28:19.949Z,1.00
2022-07-30T19:30:48.757Z,1.00
2022-07-30T19:33:18.974Z,1.00
2022-07-30T19:35:47.808Z,1.00
2022-07-30T19:38:21.654Z,1.00
2022-07-30T19:40:51.125Z,1.00
2022-07-30T19:43:24.232Z,1.00
2022-07-30T19:45:53.606Z,1.00
2022-07-30T19:48:31.484Z,1.00
2022-07-30T19:51:01.859Z,1.00
2022-07-30T19:53:34.451Z,1.00
2022-07-30T19:56:10.486Z,1.00
2022-07-30T19:58:40.517Z,1.00
2022-07-30T20:01:09.876Z,1.00
2022-07-30T20:03:40.388Z,1.00
2022-07-30T20:06:14.874Z,1.00
2022-07-30T20:08:45.171Z,1.00
2022-07-30T20:11:21.184Z,1.00
2022-07-30T20:14:03.453Z,1.00
2022-07-30T20:16:32.425Z,1.00
2022-07-30T20:19:03.294Z,1.00
2022-07-30T20:21:54.283Z,1.00
2022-07-30T20:24:22.617Z,1.00
2022-07-30T20:26:52.037Z,1.10
2022-07-30T20:29:20.898Z,1.30
2022-07-30T20:31:50.204Z,1.80
2022-07-30T20:34:25.743Z,2.20
2022-07-30T20:36:56.467Z,2.40
2022-07-30T20:39:26.331Z,2.80
2022-07-30T20:42:07.978Z,3.10
2022-07-30T20:44:38.501Z,3.50
2022-07-30T20:47:08.988Z,4.10
2022-07-30T20:49:41.230Z,4.30
2022-07-30T20:52:10.851Z,4.90
2022-07-30T20:54:43.680Z,5.40
2022-07-30T20:57:15.800Z,5.80
2022-07-30T20:59:49.166Z,6.10
2022-07-30T21:02:18.798Z,6.30
2022-07-30T21:04:59.958Z,6.60
2022-07-30T21:07:36.804Z,7.10
2022-07-30T21:10:07.346Z,7.30
2022-07-30T21:12:36.999Z,7.70
2022-07-30T21:15:23.159Z,7.90
2022-07-30T21:17:53.086Z,8.00
2022-07-30T21:20:27.669Z,8.20
2022-07-30T21:22:57.413Z,8.30
2022-07-30T21:25:33.051Z,8.70
2022-07-30T21:28:03.266Z,9.30
2022-07-30T21:30:34.099Z,10.00
2022-07-30T21:33:02.919Z,10.30
2022-07-30T21:35:33.132Z,10.60
2022-07-30T21:38:02.210Z,10.70
2022-07-30T21:40:31.913Z,11.40
2022-07-30T21:43:00.853Z,11.70
2022-07-30T21:45:38.839Z,12.00
2022-07-30T21:48:10.893Z,12.40
2022-07-30T21:50:41.980Z,13.00
2022-07-30T21:53:12.083Z,13.30
2022-07-30T21:55:52.651Z,13.90
2022-07-30T21:58:25.910Z,14.80
2022-07-30T22:01:17.023Z,15.40
2022-07-30T22:04:03.604Z,16.20
2022-07-30T22:06:41.711Z,17.20
2022-07-30T22:09:19.762Z,18.10
2022-07-30T22:12:09.684Z,18.80
2022-07-30T22:14:40.949Z,19.60
2022-07-30T22:17:22.489Z,20.20
2022-07-30T22:19:54.578Z,20.70
2022-07-30T22:22:27.214Z,21.90
2022-07-30T22:24:59.921Z,22.20
2022-07-30T22:27:40.013Z,22.50
2022-07-30T22:30:18.922Z,23.40
2022-07-30T22:32:48.946Z,24.00
2022-07-30T22:35:20.674Z,24.40
2022-07-30T22:38:02.949Z,25.20
2022-07-30T22:40:32.584Z,25.90
2022-07-30T22:43:07.604Z,27.00
2022-07-30T22:45:48.641Z,26.70
2022-07-30T22:48:19.336Z,26.40
2022-07-30T22:50:55.572Z,25.90
2022-07-30T22:54:11.440Z,26.00
2022-07-30T22:56:18.556Z,26.60
2022-07-30T22:58:48.569Z,27.20
2022-07-30T23:01:18.182Z,27.90
2022-07-30T23:03:48.085Z,28.80
2022-07-30T23:06:17.091Z,30.00
2022-07-30T23:08:51.559Z,30.60
2022-07-30T23:11:21.644Z,31.80
2022-07-30T23:13:53.902Z,31.90
2022-07-30T23:16:23.173Z,31.70
2022-07-30T23:18:51.998Z,33.30
2022-07-30T23:21:21.094Z,33.70
2022-07-30T23:23:51.373Z,34.00
2022-07-30T23:26:20.267Z,34.90
2022-07-30T23:28:49.361Z,35.30
2022-07-30T23:31:18.345Z,35.60
2022-07-30T23:33:47.112Z,36.80
2022-07-30T23:36:15.862Z,37.50
2022-07-30T23:38:46.281Z,37.80
2022-07-30T23:41:17.344Z,38.50
2022-07-30T23:43:58.791Z,39.70
2022-07-30T23:46:27.606Z,40.80
2022-07-30T23:48:56.465Z,41.90
2022-07-30T23:51:25.223Z,43.20
2022-07-30T23:54:03.607Z,44.90
2022-07-30T23:56:33.908Z,45.50
2022-07-30T23:59:02.939Z,47.30
